sensor_id;sensor_type;location;lat;lon;timestamp;P1;durP1;ratioP1;P2;durP2;ratioP2
12896;SDS011;6516;35.028;32.372;2023-09-19T00:00:37;16.92;;;9.48;;
12896;SDS011;6516;35.028;32.372;2023-09-19T00:03:09;16.27;;;10.10;;
12896;SDS011;6516;35.028;32.372;2023-09-19T00:05:38;15.10;;;9.20;;
12896;SDS011;6516;35.028;32.372;2023-09-19T00:08:10;16.90;;;9.73;;
12896;SDS011;6516;35.028;32.372;2023-09-19T00:10:40;14.65;;;9.15;;
12896;SDS011;6516;35.028;32.372;2023-09-19T00:13:10;14.90;;;8.73;;
12896;SDS011;6516;35.028;32.372;2023-09-19T00:15:40;15.30;;;9.23;;
12896;SDS011;6516;35.028;32.372;2023-09-19T00:18:14;16.47;;;8.87;;
12896;SDS011;6516;35.028;32.372;2023-09-19T00:20:46;16.13;;;8.98;;
12896;SDS011;6516;35.028;32.372;2023-09-19T00:23:17;17.00;;;8.80;;
12896;SDS011;6516;35.028;32.372;2023-09-19T00:25:45;14.73;;;8.60;;
12896;SDS011;6516;35.028;32.372;2023-09-19T00:28:15;13.85;;;8.60;;
12896;SDS011;6516;35.028;32.372;2023-09-19T00:30:43;14.33;;;9.23;;
12896;SDS011;6516;35.028;32.372;2023-09-19T00:33:15;12.88;;;8.43;;
12896;SDS011;6516;35.028;32.372;2023-09-19T00:35:47;16.30;;;8.80;;
12896;SDS011;6516;35.028;32.372;2023-09-19T00:38:15;15.73;;;9.02;;
12896;SDS011;6516;35.028;32.372;2023-09-19T00:40:46;15.07;;;9.05;;
12896;SDS011;6516;35.028;32.372;2023-09-19T00:43:17;13.30;;;8.63;;
12896;SDS011;6516;35.028;32.372;2023-09-19T00:45:46;15.85;;;8.77;;
12896;SDS011;6516;35.028;32.372;2023-09-19T00:48:17;16.63;;;9.27;;
12896;SDS011;6516;35.028;32.372;2023-09-19T00:50:46;14.77;;;8.45;;
12896;SDS011;6516;35.028;32.372;2023-09-19T00:53:18;15.18;;;8.60;;
12896;SDS011;6516;35.028;32.372;2023-09-19T00:55:51;13.50;;;8.20;;
12896;SDS011;6516;35.028;32.372;2023-09-19T00:58:22;13.82;;;8.60;;
12896;SDS011;6516;35.028;32.372;2023-09-19T01:00:51;16.90;;;8.63;;
12896;SDS011;6516;35.028;32.372;2023-09-19T01:03:19;16.48;;;8.48;;
12896;SDS011;6516;35.028;32.372;2023-09-19T01:05:47;13.77;;;8.27;;
12896;SDS011;6516;35.028;32.372;2023-09-19T01:08:15;14.80;;;8.53;;
12896;SDS011;6516;35.028;32.372;2023-09-19T01:10:49;11.93;;;7.97;;
12896;SDS011;6516;35.028;32.372;2023-09-19T01:13:28;18.55;;;8.95;;
12896;SDS011;6516;35.028;32.372;2023-09-19T01:16:07;14.45;;;8.07;;
12896;SDS011;6516;35.028;32.372;2023-09-19T01:18:47;14.18;;;8.43;;
12896;SDS011;6516;35.028;32.372;2023-09-19T01:21:27;15.10;;;8.27;;
12896;SDS011;6516;35.028;32.372;2023-09-19T01:24:14;14.77;;;8.45;;
12896;SDS011;6516;35.028;32.372;2023-09-19T01:27:15;14.57;;;8.30;;
12896;SDS011;6516;35.028;32.372;2023-09-19T01:30:07;13.15;;;8.48;;
12896;SDS011;6516;35.028;32.372;2023-09-19T01:32:36;13.48;;;7.97;;
12896;SDS011;6516;35.028;32.372;2023-09-19T01:35:06;15.70;;;8.37;;
12896;SDS011;6516;35.028;32.372;2023-09-19T01:37:38;14.65;;;8.35;;
12896;SDS011;6516;35.028;32.372;2023-09-19T01:40:08;12.75;;;7.82;;
12896;SDS011;6516;35.028;32.372;2023-09-19T01:42:43;13.18;;;8.18;;
12896;SDS011;6516;35.028;32.372;2023-09-19T01:45:20;14.82;;;8.25;;
12896;SDS011;6516;35.028;32.372;2023-09-19T01:47:59;14.20;;;8.40;;
12896;SDS011;6516;35.028;32.372;2023-09-19T01:50:42;15.98;;;8.18;;
12896;SDS011;6516;35.028;32.372;2023-09-19T01:53:21;15.80;;;8.18;;
12896;SDS011;6516;35.028;32.372;2023-09-19T01:55:55;17.42;;;7.97;;
12896;SDS011;6516;35.028;32.372;2023-09-19T01:58:27;14.25;;;8.07;;
12896;SDS011;6516;35.028;32.372;2023-09-19T02:01:03;13.47;;;8.27;;
12896;SDS011;6516;35.028;32.372;2023-09-19T02:03:33;13.23;;;7.80;;
12896;SDS011;6516;35.028;32.372;2023-09-19T02:06:15;13.45;;;7.47;;
12896;SDS011;6516;35.028;32.372;2023-09-19T02:08:45;14.68;;;7.50;;
12896;SDS011;6516;35.028;32.372;2023-09-19T02:11:14;13.00;;;7.03;;
12896;SDS011;6516;35.028;32.372;2023-09-19T02:13:41;15.17;;;6.97;;
12896;SDS011;6516;35.028;32.372;2023-09-19T02:16:12;11.93;;;7.18;;
12896;SDS011;6516;35.028;32.372;2023-09-19T02:18:46;12.25;;;7.10;;
12896;SDS011;6516;35.028;32.372;2023-09-19T02:21:17;11.43;;;6.60;;
12896;SDS011;6516;35.028;32.372;2023-09-19T02:23:47;13.20;;;6.32;;
12896;SDS011;6516;35.028;32.372;2023-09-19T02:26:18;11.03;;;6.30;;
12896;SDS011;6516;35.028;32.372;2023-09-19T02:28:47;12.27;;;6.05;;
12896;SDS011;6516;35.028;32.372;2023-09-19T02:31:17;9.60;;;6.30;;
12896;SDS011;6516;35.028;32.372;2023-09-19T02:33:45;11.38;;;5.97;;
12896;SDS011;6516;35.028;32.372;2023-09-19T02:36:15;10.40;;;6.20;;
12896;SDS011;6516;35.028;32.372;2023-09-19T02:38:44;9.47;;;5.50;;
12896;SDS011;6516;35.028;32.372;2023-09-19T02:41:12;10.38;;;5.97;;
12896;SDS011;6516;35.028;32.372;2023-09-19T02:43:40;11.88;;;5.70;;
12896;SDS011;6516;35.028;32.372;2023-09-19T02:46:08;11.82;;;5.53;;
12896;SDS011;6516;35.028;32.372;2023-09-19T02:48:38;10.50;;;5.60;;
12896;SDS011;6516;35.028;32.372;2023-09-19T02:51:07;8.73;;;5.10;;
12896;SDS011;6516;35.028;32.372;2023-09-19T02:53:36;8.20;;;5.18;;
12896;SDS011;6516;35.028;32.372;2023-09-19T02:56:04;9.48;;;5.40;;
12896;SDS011;6516;35.028;32.372;2023-09-19T02:58:32;11.23;;;5.50;;
12896;SDS011;6516;35.028;32.372;2023-09-19T03:01:07;10.38;;;5.43;;
12896;SDS011;6516;35.028;32.372;2023-09-19T03:03:39;7.23;;;4.77;;
12896;SDS011;6516;35.028;32.372;2023-09-19T03:06:07;9.73;;;5.80;;
12896;SDS011;6516;35.028;32.372;2023-09-19T03:08:35;9.52;;;4.75;;
12896;SDS011;6516;35.028;32.372;2023-09-19T03:11:04;11.77;;;5.00;;
12896;SDS011;6516;35.028;32.372;2023-09-19T03:13:36;12.45;;;5.97;;
12896;SDS011;6516;35.028;32.372;2023-09-19T03:16:06;8.43;;;4.90;;
12896;SDS011;6516;35.028;32.372;2023-09-19T03:18:34;6.95;;;4.47;;
12896;SDS011;6516;35.028;32.372;2023-09-19T03:21:03;10.10;;;4.63;;
12896;SDS011;6516;35.028;32.372;2023-09-19T03:23:31;10.35;;;4.78;;
12896;SDS011;6516;35.028;32.372;2023-09-19T03:25:59;8.23;;;4.78;;
12896;SDS011;6516;35.028;32.372;2023-09-19T03:28:32;7.57;;;4.40;;
12896;SDS011;6516;35.028;32.372;2023-09-19T03:31:02;7.70;;;4.25;;
12896;SDS011;6516;35.028;32.372;2023-09-19T03:33:31;11.57;;;4.50;;
12896;SDS011;6516;35.028;32.372;2023-09-19T03:35:59;7.93;;;4.32;;
12896;SDS011;6516;35.028;32.372;2023-09-19T03:38:33;11.60;;;5.00;;
12896;SDS011;6516;35.028;32.372;2023-09-19T03:41:01;8.87;;;4.77;;
12896;SDS011;6516;35.028;32.372;2023-09-19T03:43:31;10.30;;;4.80;;
12896;SDS011;6516;35.028;32.372;2023-09-19T03:46:02;11.15;;;4.88;;
12896;SDS011;6516;35.028;32.372;2023-09-19T03:48:33;9.70;;;4.68;;
12896;SDS011;6516;35.028;32.372;2023-09-19T03:51:00;9.93;;;4.45;;
12896;SDS011;6516;35.028;32.372;2023-09-19T03:53:28;10.43;;;4.90;;
12896;SDS011;6516;35.028;32.372;2023-09-19T03:55:58;8.73;;;5.07;;
12896;SDS011;6516;35.028;32.372;2023-09-19T03:58:26;8.48;;;5.00;;
12896;SDS011;6516;35.028;32.372;2023-09-19T04:00:55;10.98;;;4.78;;
12896;SDS011;6516;35.028;32.372;2023-09-19T04:03:23;11.02;;;5.10;;
12896;SDS011;6516;35.028;32.372;2023-09-19T04:06:00;11.23;;;5.27;;
12896;SDS011;6516;35.028;32.372;2023-09-19T04:08:28;9.27;;;4.65;;
12896;SDS011;6516;35.028;32.372;2023-09-19T04:10:56;9.30;;;4.95;;
12896;SDS011;6516;35.028;32.372;2023-09-19T04:13:26;10.90;;;5.35;;
12896;SDS011;6516;35.028;32.372;2023-09-19T04:15:54;10.65;;;5.15;;
12896;SDS011;6516;35.028;32.372;2023-09-19T04:18:23;10.97;;;5.33;;
12896;SDS011;6516;35.028;32.372;2023-09-19T04:20:52;10.55;;;5.25;;
12896;SDS011;6516;35.028;32.372;2023-09-19T04:23:23;9.57;;;5.43;;
12896;SDS011;6516;35.028;32.372;2023-09-19T04:25:50;10.88;;;5.60;;
12896;SDS011;6516;35.028;32.372;2023-09-19T04:28:20;12.80;;;5.72;;
12896;SDS011;6516;35.028;32.372;2023-09-19T04:30:49;10.20;;;5.67;;
12896;SDS011;6516;35.028;32.372;2023-09-19T04:33:21;11.95;;;5.50;;
12896;SDS011;6516;35.028;32.372;2023-09-19T04:35:49;11.07;;;5.75;;
12896;SDS011;6516;35.028;32.372;2023-09-19T04:38:17;10.70;;;6.00;;
12896;SDS011;6516;35.028;32.372;2023-09-19T04:40:45;10.48;;;5.60;;
12896;SDS011;6516;35.028;32.372;2023-09-19T04:43:13;10.27;;;5.90;;
12896;SDS011;6516;35.028;32.372;2023-09-19T04:45:43;13.57;;;5.95;;
12896;SDS011;6516;35.028;32.372;2023-09-19T04:48:12;14.10;;;6.60;;
12896;SDS011;6516;35.028;32.372;2023-09-19T04:50:42;11.35;;;5.90;;
12896;SDS011;6516;35.028;32.372;2023-09-19T04:53:10;17.17;;;6.50;;
12896;SDS011;6516;35.028;32.372;2023-09-19T04:55:38;10.80;;;6.17;;
12896;SDS011;6516;35.028;32.372;2023-09-19T04:58:07;17.05;;;6.15;;
12896;SDS011;6516;35.028;32.372;2023-09-19T05:00:35;14.30;;;6.20;;
12896;SDS011;6516;35.028;32.372;2023-09-19T05:03:05;9.90;;;5.47;;
12896;SDS011;6516;35.028;32.372;2023-09-19T05:05:34;11.52;;;5.43;;
12896;SDS011;6516;35.028;32.372;2023-09-19T05:08:04;13.03;;;5.83;;
12896;SDS011;6516;35.028;32.372;2023-09-19T05:10:34;19.23;;;6.00;;
12896;SDS011;6516;35.028;32.372;2023-09-19T05:13:03;18.05;;;6.05;;
12896;SDS011;6516;35.028;32.372;2023-09-19T05:15:33;10.30;;;5.25;;
12896;SDS011;6516;35.028;32.372;2023-09-19T05:18:01;24.00;;;5.60;;
12896;SDS011;6516;35.028;32.372;2023-09-19T05:20:32;9.87;;;4.77;;
12896;SDS011;6516;35.028;32.372;2023-09-19T05:23:02;14.25;;;5.38;;
12896;SDS011;6516;35.028;32.372;2023-09-19T05:25:33;15.27;;;5.35;;
12896;SDS011;6516;35.028;32.372;2023-09-19T05:28:05;10.93;;;4.90;;
12896;SDS011;6516;35.028;32.372;2023-09-19T05:30:33;14.38;;;5.60;;
12896;SDS011;6516;35.028;32.372;2023-09-19T05:33:03;10.73;;;4.67;;
12896;SDS011;6516;35.028;32.372;2023-09-19T05:35:36;9.93;;;4.70;;
12896;SDS011;6516;35.028;32.372;2023-09-19T05:38:08;11.57;;;4.63;;
12896;SDS011;6516;35.028;32.372;2023-09-19T05:40:38;15.80;;;5.55;;
12896;SDS011;6516;35.028;32.372;2023-09-19T05:43:08;14.02;;;5.38;;
12896;SDS011;6516;35.028;32.372;2023-09-19T05:45:35;10.60;;;4.57;;
12896;SDS011;6516;35.028;32.372;2023-09-19T05:48:09;10.02;;;4.45;;
12896;SDS011;6516;35.028;32.372;2023-09-19T05:50:42;9.85;;;4.25;;
12896;SDS011;6516;35.028;32.372;2023-09-19T05:53:15;9.52;;;4.05;;
12896;SDS011;6516;35.028;32.372;2023-09-19T05:55:43;9.52;;;4.30;;
12896;SDS011;6516;35.028;32.372;2023-09-19T05:58:12;9.37;;;3.77;;
12896;SDS011;6516;35.028;32.372;2023-09-19T06:00:43;12.68;;;4.22;;
12896;SDS011;6516;35.028;32.372;2023-09-19T06:03:14;37.28;;;6.53;;
12896;SDS011;6516;35.028;32.372;2023-09-19T06:05:44;10.38;;;4.68;;
12896;SDS011;6516;35.028;32.372;2023-09-19T06:08:15;9.07;;;4.25;;
12896;SDS011;6516;35.028;32.372;2023-09-19T06:10:42;9.83;;;4.07;;
12896;SDS011;6516;35.028;32.372;2023-09-19T06:13:13;9.25;;;4.50;;
12896;SDS011;6516;35.028;32.372;2023-09-19T06:15:46;9.18;;;4.45;;
12896;SDS011;6516;35.028;32.372;2023-09-19T06:18:16;9.70;;;4.30;;
12896;SDS011;6516;35.028;32.372;2023-09-19T06:20:46;10.50;;;4.70;;
12896;SDS011;6516;35.028;32.372;2023-09-19T06:23:17;8.47;;;3.53;;
12896;SDS011;6516;35.028;32.372;2023-09-19T06:25:46;7.68;;;3.50;;
12896;SDS011;6516;35.028;32.372;2023-09-19T06:28:16;8.60;;;4.20;;
12896;SDS011;6516;35.028;32.372;2023-09-19T06:30:50;7.28;;;3.80;;
12896;SDS011;6516;35.028;32.372;2023-09-19T06:33:19;11.68;;;4.70;;
12896;SDS011;6516;35.028;32.372;2023-09-19T06:35:53;8.67;;;4.20;;
12896;SDS011;6516;35.028;32.372;2023-09-19T06:38:24;9.20;;;4.47;;
12896;SDS011;6516;35.028;32.372;2023-09-19T06:40:52;10.10;;;4.32;;
12896;SDS011;6516;35.028;32.372;2023-09-19T06:43:21;11.25;;;4.53;;
12896;SDS011;6516;35.028;32.372;2023-09-19T06:45:49;8.70;;;4.13;;
12896;SDS011;6516;35.028;32.372;2023-09-19T06:48:21;9.00;;;4.10;;
12896;SDS011;6516;35.028;32.372;2023-09-19T06:50:50;10.00;;;4.05;;
12896;SDS011;6516;35.028;32.372;2023-09-19T06:53:23;12.07;;;4.63;;
12896;SDS011;6516;35.028;32.372;2023-09-19T06:55:52;9.95;;;4.40;;
12896;SDS011;6516;35.028;32.372;2023-09-19T06:58:21;8.18;;;4.20;;
12896;SDS011;6516;35.028;32.372;2023-09-19T07:00:49;12.20;;;4.43;;
12896;SDS011;6516;35.028;32.372;2023-09-19T07:03:17;10.02;;;4.38;;
12896;SDS011;6516;35.028;32.372;2023-09-19T07:05:47;10.30;;;4.45;;
12896;SDS011;6516;35.028;32.372;2023-09-19T07:08:17;9.07;;;4.30;;
12896;SDS011;6516;35.028;32.372;2023-09-19T07:10:45;11.35;;;4.60;;
12896;SDS011;6516;35.028;32.372;2023-09-19T07:16:07;8.70;;;4.05;;
12896;SDS011;6516;35.028;32.372;2023-09-19T07:18:52;11.82;;;4.88;;
12896;SDS011;6516;35.028;32.372;2023-09-19T07:21:21;8.70;;;4.03;;
12896;SDS011;6516;35.028;32.372;2023-09-19T07:23:51;8.23;;;4.03;;
12896;SDS011;6516;35.028;32.372;2023-09-19T07:26:19;8.53;;;4.10;;
12896;SDS011;6516;35.028;32.372;2023-09-19T07:28:47;10.75;;;4.30;;
12896;SDS011;6516;35.028;32.372;2023-09-19T07:31:15;8.55;;;3.83;;
12896;SDS011;6516;35.028;32.372;2023-09-19T07:33:43;9.77;;;3.88;;
12896;SDS011;6516;35.028;32.372;2023-09-19T07:36:11;8.45;;;4.10;;
12896;SDS011;6516;35.028;32.372;2023-09-19T07:38:40;7.60;;;3.97;;
12896;SDS011;6516;35.028;32.372;2023-09-19T07:41:13;8.77;;;3.88;;
12896;SDS011;6516;35.028;32.372;2023-09-19T07:43:42;11.05;;;4.22;;
12896;SDS011;6516;35.028;32.372;2023-09-19T07:46:10;9.05;;;4.10;;
12896;SDS011;6516;35.028;32.372;2023-09-19T07:48:38;9.13;;;4.10;;
12896;SDS011;6516;35.028;32.372;2023-09-19T07:51:09;14.53;;;4.80;;
12896;SDS011;6516;35.028;32.372;2023-09-19T07:53:37;12.98;;;4.15;;
12896;SDS011;6516;35.028;32.372;2023-09-19T07:56:05;19.45;;;4.70;;
12896;SDS011;6516;35.028;32.372;2023-09-19T07:58:38;17.73;;;5.22;;
12896;SDS011;6516;35.028;32.372;2023-09-19T08:01:08;8.68;;;4.03;;
12896;SDS011;6516;35.028;32.372;2023-09-19T08:03:38;7.83;;;3.90;;
12896;SDS011;6516;35.028;32.372;2023-09-19T08:06:07;14.95;;;4.60;;
12896;SDS011;6516;35.028;32.372;2023-09-19T08:08:35;12.40;;;4.32;;
12896;SDS011;6516;35.028;32.372;2023-09-19T08:11:04;8.63;;;4.20;;
12896;SDS011;6516;35.028;32.372;2023-09-19T08:13:38;10.85;;;4.50;;
12896;SDS011;6516;35.028;32.372;2023-09-19T08:16:09;11.90;;;4.63;;
12896;SDS011;6516;35.028;32.372;2023-09-19T08:18:42;9.23;;;4.10;;
12896;SDS011;6516;35.028;32.372;2023-09-19T08:21:11;12.55;;;4.65;;
12896;SDS011;6516;35.028;32.372;2023-09-19T08:23:40;8.98;;;3.90;;
12896;SDS011;6516;35.028;32.372;2023-09-19T08:26:08;9.52;;;3.80;;
12896;SDS011;6516;35.028;32.372;2023-09-19T08:28:36;9.87;;;4.47;;
12896;SDS011;6516;35.028;32.372;2023-09-19T08:31:07;12.98;;;4.00;;
12896;SDS011;6516;35.028;32.372;2023-09-19T08:33:36;11.13;;;4.30;;
12896;SDS011;6516;35.028;32.372;2023-09-19T08:36:06;17.48;;;4.60;;
12896;SDS011;6516;35.028;32.372;2023-09-19T08:38:35;9.90;;;4.55;;
12896;SDS011;6516;35.028;32.372;2023-09-19T08:41:05;9.50;;;4.00;;
12896;SDS011;6516;35.028;32.372;2023-09-19T08:43:35;11.20;;;4.13;;
12896;SDS011;6516;35.028;32.372;2023-09-19T08:46:08;13.80;;;4.38;;
12896;SDS011;6516;35.028;32.372;2023-09-19T08:48:50;39.90;;;5.63;;
12896;SDS011;6516;35.028;32.372;2023-09-19T08:51:30;11.73;;;4.47;;
12896;SDS011;6516;35.028;32.372;2023-09-19T08:54:10;8.90;;;4.00;;
12896;SDS011;6516;35.028;32.372;2023-09-19T08:56:51;11.00;;;4.32;;
12896;SDS011;6516;35.028;32.372;2023-09-19T08:59:22;10.85;;;4.55;;
12896;SDS011;6516;35.028;32.372;2023-09-19T09:01:53;11.38;;;3.90;;
12896;SDS011;6516;35.028;32.372;2023-09-19T09:04:24;12.25;;;4.10;;
12896;SDS011;6516;35.028;32.372;2023-09-19T09:06:53;9.23;;;4.17;;
12896;SDS011;6516;35.028;32.372;2023-09-19T09:09:23;12.43;;;4.60;;
12896;SDS011;6516;35.028;32.372;2023-09-19T09:11:51;11.13;;;4.38;;
12896;SDS011;6516;35.028;32.372;2023-09-19T09:14:22;13.00;;;4.85;;
12896;SDS011;6516;35.028;32.372;2023-09-19T09:16:50;8.95;;;4.55;;
12896;SDS011;6516;35.028;32.372;2023-09-19T09:19:22;11.37;;;4.30;;
12896;SDS011;6516;35.028;32.372;2023-09-19T09:21:51;13.02;;;4.60;;
12896;SDS011;6516;35.028;32.372;2023-09-19T09:24:28;12.98;;;4.32;;
12896;SDS011;6516;35.028;32.372;2023-09-19T09:26:59;9.85;;;4.15;;
12896;SDS011;6516;35.028;32.372;2023-09-19T09:32:21;13.57;;;4.20;;
12896;SDS011;6516;35.028;32.372;2023-09-19T09:34:52;13.20;;;4.30;;
12896;SDS011;6516;35.028;32.372;2023-09-19T09:37:22;11.57;;;4.43;;
12896;SDS011;6516;35.028;32.372;2023-09-19T09:39:52;13.40;;;4.30;;
12896;SDS011;6516;35.028;32.372;2023-09-19T09:42:30;12.02;;;4.30;;
12896;SDS011;6516;35.028;32.372;2023-09-19T09:48:04;12.70;;;4.30;;
12896;SDS011;6516;35.028;32.372;2023-09-19T09:50:46;12.23;;;4.43;;
12896;SDS011;6516;35.028;32.372;2023-09-19T09:53:21;9.70;;;4.25;;
12896;SDS011;6516;35.028;32.372;2023-09-19T09:56:02;28.08;;;5.35;;
12896;SDS011;6516;35.028;32.372;2023-09-19T09:58:33;22.10;;;4.30;;
12896;SDS011;6516;35.028;32.372;2023-09-19T10:01:03;11.07;;;4.13;;
12896;SDS011;6516;35.028;32.372;2023-09-19T10:03:42;12.73;;;4.50;;
12896;SDS011;6516;35.028;32.372;2023-09-19T10:06:13;9.98;;;4.00;;
12896;SDS011;6516;35.028;32.372;2023-09-19T10:09:02;16.05;;;4.32;;
12896;SDS011;6516;35.028;32.372;2023-09-19T10:11:42;11.67;;;4.07;;
12896;SDS011;6516;35.028;32.372;2023-09-19T10:14:12;19.63;;;4.28;;
12896;SDS011;6516;35.028;32.372;2023-09-19T10:16:47;10.05;;;4.32;;
12896;SDS011;6516;35.028;32.372;2023-09-19T10:19:23;13.07;;;4.53;;
12896;SDS011;6516;35.028;32.372;2023-09-19T10:22:00;15.63;;;4.30;;
12896;SDS011;6516;35.028;32.372;2023-09-19T10:24:34;13.80;;;3.97;;
12896;SDS011;6516;35.028;32.372;2023-09-19T10:27:04;20.20;;;4.82;;
12896;SDS011;6516;35.028;32.372;2023-09-19T10:29:36;11.35;;;4.15;;
12896;SDS011;6516;35.028;32.372;2023-09-19T10:32:06;9.88;;;4.40;;
12896;SDS011;6516;35.028;32.372;2023-09-19T10:34:36;11.45;;;3.88;;
12896;SDS011;6516;35.028;32.372;2023-09-19T10:37:06;14.70;;;4.37;;
12896;SDS011;6516;35.028;32.372;2023-09-19T10:39:40;9.70;;;3.95;;
12896;SDS011;6516;35.028;32.372;2023-09-19T10:42:09;7.30;;;4.00;;
12896;SDS011;6516;35.028;32.372;2023-09-19T10:44:45;11.48;;;4.60;;
12896;SDS011;6516;35.028;32.372;2023-09-19T10:47:21;11.27;;;3.95;;
12896;SDS011;6516;35.028;32.372;2023-09-19T10:49:53;14.13;;;4.07;;
12896;SDS011;6516;35.028;32.372;2023-09-19T10:52:23;12.32;;;4.13;;
12896;SDS011;6516;35.028;32.372;2023-09-19T10:54:55;11.55;;;4.10;;
12896;SDS011;6516;35.028;32.372;2023-09-19T10:57:26;9.45;;;4.40;;
12896;SDS011;6516;35.028;32.372;2023-09-19T11:00:03;10.63;;;4.60;;
12896;SDS011;6516;35.028;32.372;2023-09-19T11:06:09;10.32;;;4.10;;
12896;SDS011;6516;35.028;32.372;2023-09-19T11:08:53;10.23;;;4.18;;
12896;SDS011;6516;35.028;32.372;2023-09-19T11:11:44;10.65;;;4.18;;
12896;SDS011;6516;35.028;32.372;2023-09-19T11:14:30;13.02;;;4.72;;
12896;SDS011;6516;35.028;32.372;2023-09-19T11:23:19;12.02;;;4.28;;
12896;SDS011;6516;35.028;32.372;2023-09-19T11:25:56;8.50;;;4.05;;
12896;SDS011;6516;35.028;32.372;2023-09-19T11:28:27;10.88;;;4.78;;
12896;SDS011;6516;35.028;32.372;2023-09-19T11:34:39;11.05;;;4.25;;
12896;SDS011;6516;35.028;32.372;2023-09-19T11:40:52;11.45;;;4.40;;
12896;SDS011;6516;35.028;32.372;2023-09-19T11:47:04;9.90;;;4.00;;
12896;SDS011;6516;35.028;32.372;2023-09-19T11:49:34;9.85;;;4.35;;
12896;SDS011;6516;35.028;32.372;2023-09-19T11:52:08;11.10;;;4.72;;
12896;SDS011;6516;35.028;32.372;2023-09-19T11:54:37;13.88;;;4.55;;
12896;SDS011;6516;35.028;32.372;2023-09-19T11:57:08;11.05;;;4.32;;
12896;SDS011;6516;35.028;32.372;2023-09-19T11:59:38;9.70;;;4.10;;
12896;SDS011;6516;35.028;32.372;2023-09-19T12:02:07;9.65;;;4.10;;
12896;SDS011;6516;35.028;32.372;2023-09-19T12:04:40;10.48;;;4.22;;
12896;SDS011;6516;35.028;32.372;2023-09-19T12:07:14;8.18;;;3.90;;
12896;SDS011;6516;35.028;32.372;2023-09-19T12:09:42;9.50;;;4.20;;
12896;SDS011;6516;35.028;32.372;2023-09-19T12:12:19;9.87;;;4.00;;
12896;SDS011;6516;35.028;32.372;2023-09-19T12:14:54;8.15;;;4.10;;
12896;SDS011;6516;35.028;32.372;2023-09-19T12:17:24;9.45;;;4.20;;
12896;SDS011;6516;35.028;32.372;2023-09-19T12:20:06;8.30;;;4.13;;
12896;SDS011;6516;35.028;32.372;2023-09-19T12:22:40;11.38;;;4.57;;
12896;SDS011;6516;35.028;32.372;2023-09-19T12:25:09;10.33;;;4.53;;
12896;SDS011;6516;35.028;32.372;2023-09-19T12:27:45;11.18;;;4.22;;
12896;SDS011;6516;35.028;32.372;2023-09-19T12:30:18;12.07;;;4.07;;
12896;SDS011;6516;35.028;32.372;2023-09-19T12:32:47;8.65;;;3.97;;
12896;SDS011;6516;35.028;32.372;2023-09-19T12:35:26;9.50;;;4.40;;
12896;SDS011;6516;35.028;32.372;2023-09-19T12:37:55;8.67;;;3.77;;
12896;SDS011;6516;35.028;32.372;2023-09-19T12:40:24;9.80;;;3.85;;
12896;SDS011;6516;35.028;32.372;2023-09-19T12:42:56;11.02;;;4.50;;
12896;SDS011;6516;35.028;32.372;2023-09-19T12:45:26;8.20;;;3.83;;
12896;SDS011;6516;35.028;32.372;2023-09-19T12:50:59;9.57;;;4.33;;
12896;SDS011;6516;35.028;32.372;2023-09-19T12:53:32;10.73;;;4.18;;
12896;SDS011;6516;35.028;32.372;2023-09-19T12:56:06;9.20;;;4.13;;
12896;SDS011;6516;35.028;32.372;2023-09-19T12:58:36;9.20;;;4.07;;
12896;SDS011;6516;35.028;32.372;2023-09-19T13:01:19;7.40;;;4.00;;
12896;SDS011;6516;35.028;32.372;2023-09-19T13:06:43;8.18;;;3.83;;
12896;SDS011;6516;35.028;32.372;2023-09-19T13:09:14;11.40;;;4.68;;
12896;SDS011;6516;35.028;32.372;2023-09-19T13:11:44;9.38;;;4.00;;
12896;SDS011;6516;35.028;32.372;2023-09-19T13:14:21;8.15;;;4.45;;
12896;SDS011;6516;35.028;32.372;2023-09-19T13:16:57;7.87;;;4.17;;
12896;SDS011;6516;35.028;32.372;2023-09-19T13:19:35;9.30;;;4.13;;
12896;SDS011;6516;35.028;32.372;2023-09-19T13:22:05;7.63;;;4.20;;
12896;SDS011;6516;35.028;32.372;2023-09-19T13:25:08;7.40;;;3.90;;
12896;SDS011;6516;35.028;32.372;2023-09-19T13:27:40;10.52;;;4.50;;
12896;SDS011;6516;35.028;32.372;2023-09-19T13:30:12;10.77;;;4.57;;
12896;SDS011;6516;35.028;32.372;2023-09-19T13:32:43;9.13;;;4.30;;
12896;SDS011;6516;35.028;32.372;2023-09-19T13:35:12;9.02;;;4.38;;
12896;SDS011;6516;35.028;32.372;2023-09-19T13:37:41;9.38;;;4.05;;
12896;SDS011;6516;35.028;32.372;2023-09-19T13:40:12;10.70;;;4.28;;
12896;SDS011;6516;35.028;32.372;2023-09-19T13:42:42;7.87;;;4.17;;
12896;SDS011;6516;35.028;32.372;2023-09-19T13:45:12;10.75;;;4.30;;
12896;SDS011;6516;35.028;32.372;2023-09-19T13:47:42;10.50;;;4.43;;
12896;SDS011;6516;35.028;32.372;2023-09-19T13:50:10;9.50;;;4.15;;
12896;SDS011;6516;35.028;32.372;2023-09-19T13:52:38;8.23;;;4.22;;
12896;SDS011;6516;35.028;32.372;2023-09-19T13:55:07;8.27;;;4.60;;
12896;SDS011;6516;35.028;32.372;2023-09-19T13:57:40;10.55;;;4.75;;
12896;SDS011;6516;35.028;32.372;2023-09-19T14:00:09;9.65;;;4.50;;
12896;SDS011;6516;35.028;32.372;2023-09-19T14:02:41;9.07;;;4.20;;
12896;SDS011;6516;35.028;32.372;2023-09-19T14:05:11;8.43;;;4.70;;
12896;SDS011;6516;35.028;32.372;2023-09-19T14:07:40;11.53;;;4.67;;
12896;SDS011;6516;35.028;32.372;2023-09-19T14:10:10;11.02;;;4.22;;
12896;SDS011;6516;35.028;32.372;2023-09-19T14:12:39;12.52;;;4.35;;
12896;SDS011;6516;35.028;32.372;2023-09-19T14:15:08;10.30;;;4.60;;
12896;SDS011;6516;35.028;32.372;2023-09-19T14:17:38;7.97;;;3.97;;
12896;SDS011;6516;35.028;32.372;2023-09-19T14:20:11;10.93;;;4.27;;
12896;SDS011;6516;35.028;32.372;2023-09-19T14:22:39;10.15;;;4.38;;
12896;SDS011;6516;35.028;32.372;2023-09-19T14:25:07;11.15;;;4.72;;
12896;SDS011;6516;35.028;32.372;2023-09-19T14:27:36;8.68;;;4.13;;
12896;SDS011;6516;35.028;32.372;2023-09-19T14:30:05;8.45;;;4.28;;
12896;SDS011;6516;35.028;32.372;2023-09-19T14:32:35;8.20;;;3.93;;
12896;SDS011;6516;35.028;32.372;2023-09-19T14:35:05;10.77;;;3.80;;
12896;SDS011;6516;35.028;32.372;2023-09-19T14:37:34;9.20;;;4.22;;
12896;SDS011;6516;35.028;32.372;2023-09-19T14:40:04;9.68;;;4.28;;
12896;SDS011;6516;35.028;32.372;2023-09-19T14:42:35;8.25;;;4.07;;
12896;SDS011;6516;35.028;32.372;2023-09-19T14:45:06;9.03;;;3.70;;
12896;SDS011;6516;35.028;32.372;2023-09-19T14:47:35;7.15;;;3.83;;
12896;SDS011;6516;35.028;32.372;2023-09-19T14:50:06;10.38;;;4.28;;
12896;SDS011;6516;35.028;32.372;2023-09-19T14:52:34;8.35;;;4.00;;
12896;SDS011;6516;35.028;32.372;2023-09-19T14:55:03;10.70;;;3.80;;
12896;SDS011;6516;35.028;32.372;2023-09-19T14:57:34;9.43;;;3.90;;
12896;SDS011;6516;35.028;32.372;2023-09-19T15:00:06;7.38;;;3.40;;
12896;SDS011;6516;35.028;32.372;2023-09-19T15:02:38;7.15;;;3.72;;
12896;SDS011;6516;35.028;32.372;2023-09-19T15:05:09;8.23;;;3.70;;
12896;SDS011;6516;35.028;32.372;2023-09-19T15:07:37;6.82;;;4.05;;
12896;SDS011;6516;35.028;32.372;2023-09-19T15:10:05;7.67;;;3.63;;
12896;SDS011;6516;35.028;32.372;2023-09-19T15:12:36;7.88;;;3.58;;
12896;SDS011;6516;35.028;32.372;2023-09-19T15:15:09;7.25;;;4.00;;
12896;SDS011;6516;35.028;32.372;2023-09-19T15:17:38;7.82;;;3.80;;
12896;SDS011;6516;35.028;32.372;2023-09-19T15:20:06;8.57;;;3.92;;
12896;SDS011;6516;35.028;32.372;2023-09-19T15:22:39;6.63;;;3.67;;
12896;SDS011;6516;35.028;32.372;2023-09-19T15:25:07;7.28;;;3.60;;
12896;SDS011;6516;35.028;32.372;2023-09-19T15:27:35;8.95;;;3.45;;
12896;SDS011;6516;35.028;32.372;2023-09-19T15:30:04;8.38;;;4.00;;
12896;SDS011;6516;35.028;32.372;2023-09-19T15:32:34;5.82;;;3.90;;
12896;SDS011;6516;35.028;32.372;2023-09-19T15:35:03;7.17;;;3.70;;
12896;SDS011;6516;35.028;32.372;2023-09-19T15:37:33;8.15;;;4.10;;
12896;SDS011;6516;35.028;32.372;2023-09-19T15:40:01;8.20;;;4.40;;